Time;durP1;ratioP1;P1;durP2;ratioP2;P2;SDS_P1;SDS_P2;PMS_P1;PMS_P2;Temp;Humidity;BMP_temperature;BMP_pressure;BME280_temperature;BME280_humidity;BME280_pressure;Samples;Min_cycle;Max_cycle;Signal;HPM_P1;HPM_P2
2023/04/18 07:01:22;;;;;;;1.17;1.13;;;10.70;99.90;13.80;102373.00;;;;6309426;22;20173;-69
2023/04/18 07:03:50;;;;;;;5.87;3.73;;;11.10;99.90;11.70;102395.00;;;;6309732;22;20206;-70
2023/04/18 07:06:16;;;;;;;7.83;3.77;;;10.80;99.90;11.30;102374.00;;;;6282104;22;20156;-68
2023/04/18 07:08:45;;;;;;;2.60;2.07;;;10.20;99.90;12.10;102349.00;;;;6281366;22;20218;-68
2023/04/18 07:11:12;;;;;;;5.13;3.67;;;10.40;99.90;12.60;102375.00;;;;6281813;22;20152;-68
2023/04/18 07:13:38;;;;;;;2.37;1.90;;;11.10;99.90;14.30;102375.00;;;;6275551;22;20176;-68
2023/04/18 07:16:04;;;;;;;1.30;1.27;;;11.70;99.90;15.50;102382.00;;;;6280522;22;20592;-68
2023/04/18 07:18:33;;;;;;;1.23;1.13;;;12.40;99.90;14.30;102332.00;;;;6282292;22;20161;-65
2023/04/18 07:21:01;;;;;;;0.87;0.87;;;12.50;99.90;14.80;102415.00;;;;6282328;22;20491;-68
2023/04/18 07:23:30;;;;;;;2.23;1.93;;;12.10;99.90;16.60;102386.00;;;;6309070;22;20142;-66
2023/04/18 07:26:01;;;;;;;3.20;2.90;;;13.00;99.90;12.90;102460.00;;;;6282259;22;20146;-68
2023/04/18 07:28:31;;;;;;;4.13;2.93;;;11.80;99.90;14.00;102442.00;;;;6282499;22;20160;-68
2023/04/18 07:30:58;;;;;;;5.40;4.23;;;11.90;99.90;11.90;102461.00;;;;6281849;22;20136;-68
2023/04/18 07:33:24;;;;;;;6.20;3.53;;;11.00;99.90;11.80;102448.00;;;;6256280;22;20185;-67
2023/04/18 07:35:54;;;;;;;3.60;2.77;;;10.70;99.90;13.30;102409.00;;;;6281887;22;20560;-67
2023/04/18 07:38:21;;;;;;;7.43;5.23;;;11.00;99.90;12.60;102404.00;;;;6255810;22;20243;-68
2023/04/18 07:41:05;;;;;;;1.57;0.70;;;11.00;99.90;14.40;102304.00;;;;6282002;22;20144;-69
2023/04/18 07:43:34;;;;;;;2.03;1.63;;;11.30;99.90;14.10;102399.00;;;;6256427;22;20163;-68
2023/04/18 07:45:59;;;;;;;2.33;2.13;;;12.00;99.90;13.10;102428.00;;;;6309232;22;20161;-68
2023/04/18 07:48:25;;;;;;;5.00;4.00;;;11.60;99.90;11.80;102332.00;;;;6308219;22;20222;-68
2023/04/18 07:50:52;;;;;;;6.80;5.40;;;10.80;99.90;12.00;102411.00;;;;6281140;22;20813;-68
2023/04/18 07:53:21;;;;;;;5.13;4.63;;;10.90;99.90;12.60;102403.00;;;;6282106;22;20610;-68
2023/04/18 07:55:53;;;;;;;6.77;4.73;;;11.10;99.90;11.80;102415.00;;;;6309088;22;20167;-68
2023/04/18 07:58:28;;;;;;;2.57;2.37;;;10.90;99.90;14.10;102372.00;;;;6308377;22;20181;-69
2023/04/18 08:01:06;;;;;;;2.07;1.03;;;11.60;99.90;14.70;102374.00;;;;6250809;22;20199;-68
2023/04/18 08:03:35;;;;;;;2.40;2.27;;;12.00;99.90;13.90;102423.00;;;;6277996;22;20153;-69
2023/04/18 08:06:01;;;;;;;0.87;0.87;;;11.80;99.90;15.60;102400.00;;;;6276489;22;20138;-69
2023/04/18 08:08:33;;;;;;;2.20;1.77;;;12.50;99.90;15.40;102332.00;;;;6275831;22;20591;-68
2023/04/18 08:11:05;;;;;;;10.57;3.00;;;12.80;99.90;14.90;102442.00;;;;6276621;22;20148;-68
2023/04/18 08:13:31;;;;;;;6.27;5.13;;;13.10;99.90;12.90;102464.00;;;;6250773;22;20184;-69
2023/04/18 08:15:58;;;;;;;2.20;1.80;;;11.80;99.90;14.50;102436.00;;;;6250822;22;20157;-68
2023/04/18 08:18:27;;;;;;;2.93;2.67;;;11.90;99.90;14.50;102425.00;;;;6275776;22;20228;-68
2023/04/18 08:21:04;;;;;;;1.83;1.73;;;12.20;99.90;14.70;102432.00;;;;6250883;22;20159;-68
2023/04/18 08:23:39;;;;;;;6.27;4.63;;;12.30;99.90;13.00;102451.00;;;;6276454;22;20191;-68
2023/04/18 08:26:05;;;;;;;4.23;3.83;;;11.70;99.90;13.70;102436.00;;;;6276439;22;20156;-68
2023/04/18 08:28:31;;;;;;;2.90;1.40;;;11.70;99.90;13.10;102423.00;;;;6275534;22;20161;-69
2023/04/18 08:30:57;;;;;;;8.53;6.53;;;11.20;99.90;12.40;102395.00;;;;6250179;22;20595;-69
2023/04/18 08:33:23;;;;;;;2.37;2.00;;;10.90;99.90;13.60;102378.00;;;;6250455;22;20208;-69
2023/04/18 08:35:53;;;;;;;2.97;1.67;;;11.20;99.90;13.60;102399.00;;;;6250353;22;20189;-69
2023/04/18 08:38:24;;;;;;;5.07;2.77;;;11.50;99.90;12.60;102387.00;;;;6276111;22;20144;-69
2023/04/18 08:40:58;;;;;;;1.87;1.53;;;11.10;99.90;13.80;102355.00;;;;6275192;22;20600;-68
2023/04/18 08:43:24;;;;;;;2.73;2.53;;;11.40;99.90;14.30;102378.00;;;;6275082;22;20203;-68
2023/04/18 08:46:01;;;;;;;2.60;1.97;;;11.90;99.90;15.90;102386.00;;;;6275564;22;20140;-67
2023/04/18 08:48:27;;;;;;;5.10;3.50;;;12.70;99.90;15.50;102402.00;;;;6275665;22;20153;-68
2023/04/18 08:50:58;;;;;;;1.03;0.70;;;12.90;99.90;14.60;102350.00;;;;6270520;22;20156;-68
2023/04/18 08:53:44;;;;;;;4.13;3.50;;;12.50;99.90;14.30;102419.00;;;;6273580;22;20181;-69
2023/04/18 08:56:16;;;;;;;4.20;2.80;;;12.30;99.90;14.10;102421.00;;;;6229138;22;20168;-68
2023/04/18 08:58:45;;;;;;;11.10;6.23;;;12.20;99.90;13.10;102420.00;;;;6274901;22;20166;-69
2023/04/18 09:01:55;;;;;;;5.93;4.80;;;11.70;99.90;14.10;102377.00;;;;6275758;22;20188;-69
2023/04/18 09:04:35;;;;;;;7.07;5.83;;;11.80;99.90;13.20;102400.00;;;;6224337;22;20163;-67
2023/04/18 09:07:27;;;;;;;7.07;2.10;;;12.00;99.90;15.10;102383.00;;;;6249289;22;20247;-70
2023/04/18 09:10:11;;;;;;;2.17;1.77;;;12.40;99.90;16.30;102370.00;;;;6204658;22;20189;-69
2023/04/18 09:13:04;;;;;;;6.27;4.83;;;13.20;99.90;15.60;102384.00;;;;6251399;22;20181;-70
2023/04/18 09:15:44;;;;;;;3.17;2.47;;;13.00;99.90;16.40;102395.00;;;;6242902;22;20184;-69
2023/04/18 09:18:54;;;;;;;1.13;1.07;;;13.40;99.90;17.00;102395.00;;;;6224163;22;20162;-69
2023/04/18 09:21:39;;;;;;;3.33;2.60;;;13.70;99.90;16.70;102383.00;;;;6275946;22;20160;-69
2023/04/18 09:24:43;;;;;;;1.57;1.47;;;13.90;99.90;17.60;102391.00;;;;6224494;22;20157;-70
2023/04/18 09:27:38;;;;;;;2.40;1.97;;;14.30;99.90;17.50;102400.00;;;;6249625;22;20247;-69
2023/04/18 09:30:10;;;;;;;4.47;4.10;;;14.50;99.90;17.20;102406.00;;;;6253614;22;20189;-71
2023/04/18 09:32:44;;;;;;;2.07;1.33;;;14.20;99.90;16.00;102429.00;;;;6249437;22;20252;-73
2023/04/18 09:35:25;;;;;;;1.50;1.17;;;13.70;99.90;17.40;102356.00;;;;6250635;22;20499;-73
2023/04/18 09:38:04;;;;;;;5.67;4.53;;;14.10;99.90;15.60;102414.00;;;;6223371;22;20169;-69
2023/04/18 09:40:42;;;;;;;3.20;2.37;;;13.80;99.90;15.00;102449.00;;;;6276870;22;20228;-69
2023/04/18 09:43:59;;;;;;;4.77;4.33;;;12.90;99.90;15.50;102460.00;;;;6249555;22;20172;-69
2023/04/18 09:46:39;;;;;;;5.70;3.63;;;13.00;99.90;15.90;102445.00;;;;6249714;22;20256;-69
2023/04/18 09:49:05;;;;;;;5.27;4.77;;;12.80;99.90;15.30;102435.00;;;;6249514;22;20160;-69
2023/04/18 09:51:40;;;;;;;3.73;2.73;;;13.00;99.90;15.60;102449.00;;;;6248614;22;20623;-69
2023/04/18 09:54:19;;;;;;;2.67;2.47;;;12.80;99.90;15.60;102451.00;;;;6223843;22;20189;-67
2023/04/18 09:56:55;;;;;;;3.30;2.37;;;12.80;99.90;15.10;102446.00;;;;6223004;22;20286;-69
2023/04/18 09:59:57;;;;;;;1.67;1.57;;;12.60;99.90;14.90;102428.00;;;;6255620;22;20892;-73
2023/04/18 10:02:56;;;;;;;5.40;4.90;;;12.60;99.90;15.60;102401.00;;;;6157672;23;20162;-69
2023/04/18 10:06:05;;;;;;;2.23;2.07;;;12.90;99.90;16.40;102417.00;;;;6158363;23;20196;-68
2023/04/18 10:08:52;;;;;;;1.80;1.57;;;13.10;99.90;16.80;102402.00;;;;6132196;23;20174;-67
2023/04/18 10:11:44;;;;;;;3.57;3.27;;;13.50;99.90;16.20;102387.00;;;;6182777;23;20167;-68
2023/04/18 10:14:21;;;;;;;2.40;2.20;;;13.50;99.90;16.30;102430.00;;;;6182824;23;20518;-68
2023/04/18 10:17:16;;;;;;;8.27;4.27;;;13.50;99.90;16.30;102424.00;;;;6249419;22;20160;-68
2023/04/18 10:20:09;;;;;;;1.23;1.20;;;13.60;99.90;17.90;102400.00;;;;6255795;22;20148;-69
2023/04/18 10:33:40;;;;;;;3.33;3.03;;;13.50;99.90;17.10;102358.00;;;;5070364;28;20671;-67
2023/04/18 10:36:16;;;;;;;8.20;5.47;;;14.10;99.90;16.60;102372.00;;;;5033237;28;20261;-67
2023/04/18 10:39:21;;;;;;;4.83;3.67;;;14.30;99.90;17.80;102362.00;;;;5045606;28;20183;-68
2023/04/18 10:42:04;;;;;;;1.47;1.40;;;14.80;99.90;18.50;102345.00;;;;5045071;28;20534;-68
2023/04/18 10:44:45;;;;;;;3.97;3.67;;;15.50;99.90;19.60;102350.00;;;;5052698;28;20192;-68
2023/04/18 10:47:18;;;;;;;4.37;3.53;;;16.10;99.90;18.50;102361.00;;;;5035692;28;20196;-68
2023/04/18 10:50:05;;;;;;;2.87;2.53;;;15.90;99.90;18.90;102288.00;;;;5049864;28;20270;-68
2023/04/18 10:53:05;;;;;;;7.73;6.00;;;16.10;99.90;16.10;102402.00;;;;5039941;28;20557;-68
2023/04/18 10:55:34;;;;;;;3.93;2.40;;;15.20;99.90;18.30;102367.00;;;;5050349;28;20185;-67
2023/04/18 10:58:37;;;;;;;8.17;5.00;;;15.00;99.90;19.50;102321.00;;;;5048218;28;20653;-68
2023/04/18 11:01:05;;;;;;;1.60;0.53;;;16.00;99.90;19.60;102322.00;;;;5056066;28;20668;-67
2023/04/18 11:03:34;;;;;;;3.20;2.80;;;16.30;99.90;18.30;102336.00;;;;5062232;28;20196;-68
2023/04/18 11:06:04;;;;;;;3.80;2.80;;;16.10;99.90;18.00;102347.00;;;;5064148;28;20172;-68
2023/04/18 11:08:30;;;;;;;8.30;6.80;;;15.60;99.90;16.30;102403.00;;;;5031799;28;20550;-68
2023/04/18 11:11:02;;;;;;;3.57;2.97;;;14.90;99.90;17.10;102318.00;;;;5054101;28;20185;-67
2023/04/18 11:13:56;;;;;;;4.93;3.20;;;14.50;99.90;17.10;102381.00;;;;5049271;28;20295;-67
2023/04/18 11:16:40;;;;;;;6.20;4.43;;;14.50;99.90;17.70;102345.00;;;;5051807;28;20186;-67
2023/04/18 11:19:25;;;;;;;6.57;3.77;;;14.50;99.90;17.40;102375.00;;;;5060711;28;20242;-67
2023/04/18 11:22:06;;;;;;;4.23;3.83;;;14.80;99.90;17.50;102349.00;;;;5034764;28;20197;-67
2023/04/18 11:25:13;;;;;;;2.13;1.93;;;14.70;99.90;16.70;102404.00;;;;5039791;28;20539;-67
2023/04/18 11:27:50;;;;;;;4.63;3.67;;;14.40;99.90;15.80;102431.00;;;;4997491;28;20288;-67
2023/04/18 11:30:41;;;;;;;2.20;2.00;;;14.00;99.90;16.50;102423.00;;;;5044455;28;20202;-69
2023/04/18 11:33:52;;;;;;;1.10;1.10;;;13.70;99.90;16.00;102437.00;;;;5048258;28;20712;-69
2023/04/18 11:36:49;;;;;;;2.13;1.90;;;13.70;99.90;15.60;102432.00;;;;5052294;28;20206;-69
2023/04/18 11:39:42;;;;;;;13.33;6.03;;;13.90;99.90;15.00;102465.00;;;;5028437;28;20191;-69
2023/04/18 11:42:11;;;;;;;5.70;3.40;;;13.30;99.90;15.20;102449.00;;;;5020264;28;20595;-69
2023/04/18 11:44:57;;;;;;;6.50;5.23;;;13.10;99.90;15.90;102422.00;;;;5033450;28;20180;-69
2023/04/18 11:47:27;;;;;;;5.17;3.47;;;13.10;99.90;16.50;102419.00;;;;5034376;28;20207;-69
2023/04/18 11:50:06;;;;;;;2.27;1.80;;;13.50;99.90;17.20;102418.00;;;;5018070;28;20198;-69
2023/04/18 11:53:08;;;;;;;2.07;1.97;;;13.80;99.90;16.10;102420.00;;;;5033531;28;20270;-70
2023/04/18 11:56:17;;;;;;;9.80;7.20;;;13.90;99.90;14.80;102461.00;;;;5035326;28;20191;-69
2023/04/18 11:59:29;;;;;;;7.40;6.27;;;13.50;99.90;14.80;102461.00;;;;5027548;28;20620;-69
2023/04/18 12:02:44;;;;;;;2.43;2.10;;;13.40;99.90;16.30;102434.00;;;;5048183;28;20204;-69
2023/04/18 12:09:43;;;;;;;5.70;4.97;;;13.70;99.90;16.30;102432.00;;;;5030377;28;20701;-68
2023/04/18 12:12:29;;;;;;;9.90;6.67;;;13.90;99.90;15.10;102447.00;;;;5032850;28;20678;-69
2023/04/18 12:15:32;;;;;;;4.10;3.70;;;13.30;99.90;16.40;102427.00;;;;5028810;28;20202;-69
2023/04/18 12:18:33;;;;;;;3.23;2.77;;;13.50;99.90;16.00;102420.00;;;;5027248;28;20213;-69
2023/04/18 12:21:25;;;;;;;2.00;1.87;;;13.60;99.90;16.90;102339.00;;;;5019529;28;20226;-69
2023/04/18 12:24:17;;;;;;;3.43;3.07;;;14.00;99.90;17.40;102394.00;;;;5031306;28;20539;-69
2023/04/18 12:27:14;;;;;;;3.20;2.37;;;14.30;99.90;17.80;102385.00;;;;5032470;28;20188;-68
2023/04/18 12:29:43;;;;;;;4.30;3.13;;;14.40;99.90;15.90;102415.00;;;;5029833;28;20200;-69
2023/04/18 12:32:15;;;;;;;5.33;3.17;;;14.00;99.90;15.80;102361.00;;;;5032810;28;20694;-70
2023/04/18 12:34:44;;;;;;;3.57;3.13;;;13.40;99.90;17.00;102408.00;;;;5014115;28;20536;-69
2023/04/18 12:37:48;;;;;;;2.53;2.00;;;13.60;99.90;16.50;102402.00;;;;5032918;28;20218;-69
2023/04/18 12:40:34;;;;;;;2.93;1.30;;;13.60;99.90;16.90;102416.00;;;;5017871;28;20194;-69
2023/04/18 12:43:06;;;;;;;2.23;1.87;;;13.80;99.90;17.40;102402.00;;;;5024395;28;20701;-69
2023/04/18 12:45:54;;;;;;;5.50;4.37;;;14.10;99.90;16.10;102411.00;;;;5033086;28;20192;-69
2023/04/18 12:48:23;;;;;;;2.43;2.23;;;13.90;99.90;16.10;102408.00;;;;5040060;28;20199;-68
2023/04/18 12:51:14;;;;;;;4.13;3.50;;;13.70;99.90;15.60;102430.00;;;;5031687;28;20237;-68
2023/04/18 12:53:48;;;;;;;1.67;1.57;;;13.40;99.90;15.70;102422.00;;;;5031983;28;20567;-67
2023/04/18 12:56:21;;;;;;;6.60;3.00;;;13.50;99.90;15.30;102397.00;;;;5047445;28;20194;-68
2023/04/18 12:58:50;;;;;;;2.03;1.77;;;13.40;99.90;16.70;102334.00;;;;5031687;28;20183;-68
2023/04/18 13:01:30;;;;;;;3.73;3.43;;;13.60;99.90;16.00;102423.00;;;;5016699;28;20290;-68
2023/04/18 13:03:56;;;;;;;5.40;3.90;;;13.40;99.90;16.50;102405.00;;;;5030775;28;20176;-68
2023/04/18 13:06:34;;;;;;;3.90;2.73;;;13.80;99.90;17.50;102362.00;;;;5034268;28;20199;-68
2023/04/18 13:09:09;;;;;;;2.00;1.90;;;14.30;99.90;16.50;102395.00;;;;5032812;28;20212;-68
2023/04/18 13:12:02;;;;;;;3.67;2.80;;;14.30;99.90;15.50;102352.00;;;;5016670;28;20239;-68
2023/04/18 13:14:39;;;;;;;2.03;1.67;;;13.90;99.90;16.10;102411.00;;;;5033325;28;20189;-68
2023/04/18 13:17:15;;;;;;;1.47;1.37;;;13.70;99.90;16.20;102415.00;;;;5022567;28;20255;-68
2023/04/18 13:19:44;;;;;;;3.03;2.27;;;13.50;99.90;15.70;102419.00;;;;5032861;28;20187;-68
2023/04/18 13:22:10;;;;;;;1.33;1.33;;;13.40;99.90;16.70;102383.00;;;;5036158;28;20192;-68
2023/04/18 13:24:46;;;;;;;2.93;2.17;;;13.70;99.90;15.90;102387.00;;;;5034208;28;20241;-68
2023/04/18 13:27:16;;;;;;;0.97;0.97;;;13.70;99.90;16.70;102376.00;;;;5016246;28;20344;-69
2023/04/18 13:29:45;;;;;;;2.63;2.43;;;13.90;99.90;16.40;102298.00;;;;5032958;28;20277;-68
2023/04/18 13:32:16;;;;;;;2.23;2.10;;;14.10;99.90;16.60;102384.00;;;;5032498;28;20211;-72
2023/04/18 13:34:51;;;;;;;1.10;1.10;;;14.10;99.90;16.90;102373.00;;;;5015790;28;20687;-69
2023/04/18 13:37:38;;;;;;;6.53;2.50;;;14.10;99.90;17.80;102338.00;;;;5032022;28;20241;-70
2023/04/18 13:40:10;;;;;;;1.77;1.63;;;14.40;99.90;17.80;102334.00;;;;5031864;28;20618;-69
2023/04/18 13:43:02;;;;;;;6.83;3.03;;;14.60;99.90;17.20;102344.00;;;;5032308;28;20572;-68
2023/04/18 13:45:53;;;;;;;1.57;1.47;;;14.60;99.90;17.10;102356.00;;;;5016317;28;20193;-68
2023/04/18 13:48:19;;;;;;;1.53;0.67;;;14.40;99.90;16.80;102365.00;;;;5033087;28;20175;-68
2023/04/18 13:50:50;;;;;;;3.70;3.33;;;14.20;99.90;17.30;102339.00;;;;5034781;28;20192;-68
2023/04/18 13:53:26;;;;;;;1.33;1.23;;;14.50;99.90;18.20;102333.00;;;;5025000;28;20254;-68
2023/04/18 13:55:51;;;;;;;2.40;2.20;;;14.80;99.90;18.10;102330.00;;;;5042252;28;20217;-68
2023/04/18 13:58:33;;;;;;;4.63;3.63;;;14.90;99.90;17.40;102355.00;;;;5015466;28;20670;-69
2023/04/18 14:00:59;;;;;;;2.77;2.57;;;14.80;99.90;16.60;102367.00;;;;5039153;28;20191;-67
2023/04/18 14:03:28;;;;;;;1.30;1.10;;;14.50;99.90;17.00;102370.00;;;;5015510;28;20641;-69
2023/04/18 14:06:29;;;;;;;3.43;3.07;;;14.30;99.90;17.50;102354.00;;;;5029859;28;20184;-68
2023/04/18 14:09:02;;;;;;;2.80;1.73;;;14.60;99.90;17.20;102369.00;;;;5031962;28;20184;-68
2023/04/18 14:11:31;;;;;;;3.90;3.60;;;14.50;99.90;17.80;102344.00;;;;5033363;28;20204;-69
2023/04/18 14:14:34;;;;;;;3.83;3.53;;;14.60;99.90;17.50;102368.00;;;;5032846;28;20187;-68
2023/04/18 14:17:12;;;;;;;1.40;1.30;;;14.70;99.90;17.50;102357.00;;;;5014752;28;20192;-68
2023/04/18 14:19:48;;;;;;;5.20;3.43;;;14.70;99.90;17.60;102334.00;;;;5015490;28;20221;-70
2023/04/18 14:22:19;;;;;;;1.70;1.43;;;14.70;99.90;16.80;102367.00;;;;5008786;28;20221;-68
2023/04/18 14:25:08;;;;;;;3.60;3.07;;;14.30;99.90;17.50;102360.00;;;;5030298;28;20189;-69
2023/04/18 14:28:02;;;;;;;6.30;5.70;;;14.70;99.90;16.20;102406.00;;;;5030528;28;20188;-68
2023/04/18 14:30:31;;;;;;;3.37;2.50;;;14.50;99.90;16.60;102378.00;;;;5028461;28;20637;-68
2023/04/18 14:33:39;;;;;;;3.43;3.13;;;14.40;99.90;17.60;102365.00;;;;5015172;28;20242;-68
2023/04/18 14:36:41;;;;;;;13.63;3.63;;;14.70;99.90;17.30;102364.00;;;;5031399;28;20192;-68
2023/04/18 14:39:45;;;;;;;8.53;4.90;;;14.80;99.90;17.20;102377.00;;;;5031450;28;20191;-68
2023/04/18 14:42:38;;;;;;;3.60;3.10;;;14.90;99.90;17.60;102369.00;;;;5031886;28;20669;-68
2023/04/18 14:45:44;;;;;;;4.27;3.30;;;15.00;99.90;17.10;102369.00;;;;5026583;28;20224;-70
2023/04/18 14:49:06;;;;;;;2.33;1.93;;;14.80;99.90;16.80;102389.00;;;;5025427;28;20191;-69
2023/04/18 14:52:24;;;;;;;1.90;1.70;;;14.60;99.90;18.20;102345.00;;;;5032400;28;20205;-69
2023/04/18 14:55:31;;;;;;;2.20;2.00;;;14.80;99.90;18.10;102330.00;;;;5008773;28;20233;-69
2023/04/18 14:58:39;;;;;;;1.23;1.13;;;15.20;99.90;18.40;102349.00;;;;5054258;28;20217;-69
2023/04/18 15:02:03;;;;;;;5.20;4.70;;;15.30;99.90;16.30;102377.00;;;;5053490;28;20184;-68
2023/04/18 15:04:54;;;;;;;4.03;2.83;;;14.80;99.90;17.30;102375.00;;;;5031482;28;20193;-69
2023/04/18 15:07:52;;;;;;;2.50;2.13;;;14.70;99.90;17.00;102382.00;;;;5029452;28;20197;-69
2023/04/18 15:10:46;;;;;;;5.67;4.63;;;14.60;99.90;16.60;102393.00;;;;5026696;28;20180;-69
2023/04/18 15:13:37;;;;;;;9.37;6.23;;;14.50;99.90;16.30;102395.00;;;;5031031;28;20230;-69
2023/04/18 15:16:22;;;;;;;3.90;3.37;;;14.30;99.90;16.90;102355.00;;;;4990865;28;20206;-69
2023/04/18 15:19:30;;;;;;;4.73;2.93;;;14.50;99.90;17.00;102381.00;;;;5023738;28;20196;-69
2023/04/18 15:22:32;;;;;;;3.23;2.37;;;14.60;99.90;16.90;102371.00;;;;5034335;28;20597;-68
2023/04/18 15:25:24;;;;;;;2.73;2.53;;;14.40;99.90;16.70;102393.00;;;;5024711;28;20649;-68
2023/04/18 15:28:01;;;;;;;5.77;5.20;;;14.30;99.90;16.50;102369.00;;;;5007602;28;20181;-68
2023/04/18 15:31:10;;;;;;;1.57;1.47;;;14.30;99.90;18.30;102353.00;;;;5018111;28;20257;-68
2023/04/18 15:34:05;;;;;;;3.83;3.50;;;14.80;99.90;17.60;102359.00;;;;5033539;28;20199;-68
2023/04/18 15:36:54;;;;;;;6.60;4.03;;;14.80;99.90;17.40;102354.00;;;;5034965;28;20187;-68
2023/04/18 15:39:23;;;;;;;3.27;2.03;;;14.80;99.90;17.20;102364.00;;;;5036857;28;20198;-68
2023/04/18 15:41:57;;;;;;;1.07;0.93;;;14.80;99.90;17.70;102354.00;;;;5042286;28;20198;-69
2023/04/18 15:44:30;;;;;;;4.13;3.80;;;14.70;99.90;17.00;102381.00;;;;5043068;28;20232;-68
2023/04/18 15:47:00;;;;;;;4.23;3.83;;;14.50;99.90;18.00;102350.00;;;;5027516;28;20674;-68
2023/04/18 15:49:51;;;;;;;9.33;5.57;;;14.80;99.90;17.90;102343.00;;;;5043145;28;20196;-69
2023/04/18 15:52:17;;;;;;;0.20;0.20;;;14.80;99.90;19.20;102333.00;;;;5043603;28;20762;-69
2023/04/18 15:54:43;;;;;;;5.20;4.70;;;15.20;99.90;17.70;102342.00;;;;5042477;28;20284;-69
2023/04/18 15:57:19;;;;;;;3.60;3.30;;;15.30;99.90;17.90;102334.00;;;;5043167;28;20279;-69
2023/04/18 16:00:26;;;;;;;2.77;2.17;;;15.10;99.90;18.00;102342.00;;;;5043840;28;20184;-69
2023/04/18 16:02:54;;;;;;;5.60;4.93;;;14.80;99.90;17.80;102351.00;;;;5043631;28;20245;-69
2023/04/18 16:05:21;;;;;;;6.23;4.90;;;14.80;99.90;17.50;102349.00;;;;5043231;28;20272;-69
2023/04/18 16:07:57;;;;;;;4.63;4.17;;;14.60;99.90;16.90;102355.00;;;;5059282;28;20179;-69
2023/04/18 16:10:31;;;;;;;3.40;2.47;;;14.60;99.90;17.60;102306.00;;;;5045374;28;20275;-69
2023/04/18 16:13:14;;;;;;;7.33;5.67;;;14.60;99.90;15.40;102383.00;;;;5039203;28;20207;-69
2023/04/18 16:15:42;;;;;;;7.97;5.37;;;14.00;99.90;16.50;102365.00;;;;5024609;28;20191;-69
2023/04/18 16:18:17;;;;;;;5.73;4.17;;;14.00;99.90;16.90;102281.00;;;;5043591;28;20272;-69
2023/04/18 16:21:10;;;;;;;4.17;2.73;;;14.20;99.90;17.00;102353.00;;;;5043196;28;20187;-67
2023/04/18 16:23:41;;;;;;;8.53;6.40;;;14.50;99.90;16.70;102358.00;;;;5041816;28;20558;-69
2023/04/18 16:26:35;;;;;;;8.77;5.90;;;14.50;99.90;17.70;102322.00;;;;5043518;28;20652;-67
2023/04/18 16:29:25;;;;;;;4.23;3.67;;;14.60;99.90;18.00;102340.00;;;;5041649;28;20199;-70
2023/04/18 16:32:05;;;;;;;8.27;6.50;;;14.90;99.90;17.00;102351.00;;;;5043383;28;20579;-70
2023/04/18 16:34:47;;;;;;;2.73;2.20;;;14.60;99.90;18.20;102328.00;;;;5042330;28;20192;-70
2023/04/18 16:37:23;;;;;;;7.60;4.77;;;14.80;99.90;17.90;102304.00;;;;5040302;28;20230;-70
2023/04/18 16:40:04;;;;;;;3.90;3.43;;;14.90;99.90;17.80;102326.00;;;;5057415;28;20227;-70
2023/04/18 16:42:56;;;;;;;6.07;5.07;;;14.80;99.90;17.10;102341.00;;;;5042251;28;20197;-70
2023/04/18 16:45:39;;;;;;;2.43;2.23;;;14.50;99.90;17.80;102306.00;;;;5048222;28;20192;-70
2023/04/18 16:48:37;;;;;;;2.77;2.50;;;14.70;99.90;17.90;102332.00;;;;5041785;28;20678;-70
2023/04/18 16:51:22;;;;;;;2.43;1.47;;;14.80;99.90;17.10;102332.00;;;;5039488;28;20546;-70
2023/04/18 16:53:51;;;;;;;5.33;4.40;;;14.60;99.90;16.40;102331.00;;;;5041276;28;20185;-70
2023/04/18 16:56:47;;;;;;;3.60;3.30;;;14.30;99.90;16.90;102268.00;;;;5041522;28;20180;-70
2023/04/18 16:59:36;;;;;;;5.27;3.37;;;14.30;99.90;16.40;102265.00;;;;5036652;28;20204;-69
2023/04/18 17:02:24;;;;;;;5.10;3.97;;;14.10;99.90;15.90;102311.00;;;;5038608;28;20219;-69
2023/04/18 17:05:00;;;;;;;3.07;2.77;;;13.90;99.90;17.40;102297.00;;;;5040825;28;20190;-69
2023/04/18 17:08:02;;;;;;;5.03;4.17;;;14.10;99.90;16.20;102283.00;;;;5041623;28;20261;-69
2023/04/18 17:10:58;;;;;;;1.20;1.10;;;14.10;99.90;17.30;102261.00;;;;5040472;28;20196;-70
2023/04/18 17:14:20;;;;;;;3.23;2.73;;;14.20;99.90;17.30;102304.00;;;;5025604;28;20219;-70
2023/04/18 17:17:23;;;;;;;3.23;3.00;;;14.30;99.90;16.30;102213.00;;;;5036151;28;20184;-69
2023/04/18 17:20:30;;;;;;;2.77;1.83;;;14.00;99.90;17.10;102306.00;;;;5025505;28;20221;-69
2023/04/18 17:23:16;;;;;;;6.63;4.40;;;14.20;99.90;17.10;102304.00;;;;5040054;28;20191;-70
2023/04/18 17:26:27;;;;;;;9.30;6.03;;;14.40;99.90;17.30;102305.00;;;;5040946;28;20185;-70
2023/04/18 17:29:22;;;;;;;5.43;2.90;;;14.40;99.90;17.10;102316.00;;;;5040551;28;20197;-70
2023/04/18 17:32:31;;;;;;;10.80;8.80;;;14.40;99.90;17.30;102315.00;;;;5033950;28;20268;-70
2023/04/18 17:35:13;;;;;;;6.67;4.93;;;14.40;99.90;16.90;102298.00;;;;5024855;28;20193;-70
2023/04/18 17:38:09;;;;;;;7.33;4.47;;;14.30;99.90;17.40;102316.00;;;;5040794;28;20189;-70
2023/04/18 17:41:18;;;;;;;2.63;2.43;;;14.40;99.90;17.40;102317.00;;;;5025437;28;20202;-70
2023/04/18 17:43:45;;;;;;;3.73;3.43;;;14.40;99.90;17.40;102317.00;;;;5040491;28;20528;-70
2023/04/18 17:46:20;;;;;;;3.80;3.37;;;14.40;99.90;16.50;102293.00;;;;5040138;28;20193;-70
2023/04/18 17:48:53;;;;;;;0.83;0.57;;;14.10;99.90;16.70;102285.00;;;;5041158;28;20187;-70
2023/04/18 17:51:42;;;;;;;4.93;4.43;;;13.90;99.90;16.20;102295.00;;;;5040931;28;20183;-71
2023/04/18 17:54:31;;;;;;;4.00;3.67;;;14.00;99.90;16.30;102209.00;;;;5076574;28;20181;-70
2023/04/18 17:57:26;;;;;;;13.30;6.80;;;13.80;99.90;16.20;102285.00;;;;5020869;28;20282;-70
2023/04/18 18:00:16;;;;;;;1.97;1.80;;;13.80;99.90;16.90;102284.00;;;;5039633;28;20306;-70
2023/04/18 18:03:00;;;;;;;0.33;0.33;;;13.80;99.90;17.00;102287.00;;;;5041580;28;20193;-70
2023/04/18 18:05:26;;;;;;;3.63;3.17;;;14.00;99.90;17.50;102293.00;;;;5040661;28;20221;-70
2023/04/18 18:07:56;;;;;;;3.23;2.07;;;14.10;99.90;16.70;102320.00;;;;5024139;28;20190;-70
2023/04/18 18:10:23;;;;;;;2.63;1.77;;;14.00;99.90;17.30;102302.00;;;;5041125;28;20174;-70
2023/04/18 18:12:57;;;;;;;6.43;3.40;;;14.00;99.90;16.30;102316.00;;;;5040673;28;20206;-70
2023/04/18 18:15:35;;;;;;;1.93;1.63;;;13.90;99.90;16.30;102286.00;;;;5058152;28;20194;-70
2023/04/18 18:18:14;;;;;;;4.13;3.73;;;13.70;99.90;16.60;102179.00;;;;5040278;28;20204;-70
2023/04/18 18:20:53;;;;;;;3.60;2.93;;;13.70;99.90;16.80;102297.00;;;;5040748;28;20659;-70
2023/04/18 18:23:31;;;;;;;1.20;1.17;;;13.70;99.90;16.70;102269.00;;;;5041047;28;20204;-70
2023/04/18 18:26:15;;;;;;;0.97;0.97;;;13.80;99.90;16.60;102293.00;;;;5039830;28;20300;-72
2023/04/18 18:28:53;;;;;;;2.77;2.00;;;13.60;99.90;16.40;102296.00;;;;5039915;28;20205;-72
2023/04/18 18:31:41;;;;;;;3.37;2.07;;;13.60;99.90;15.80;102271.00;;;;5040253;28;20241;-72
2023/04/18 18:34:18;;;;;;;7.03;4.53;;;13.40;99.90;15.30;102257.00;;;;5038458;28;20193;-72
2023/04/18 18:37:01;;;;;;;4.73;3.80;;;13.20;99.90;15.50;102278.00;;;;5040496;28;20197;-72
2023/04/18 18:39:38;;;;;;;2.53;1.87;;;13.30;99.90;14.90;102190.00;;;;5020562;28;20193;-72
2023/04/18 18:42:30;;;;;;;4.63;4.23;;;13.10;99.90;15.90;102269.00;;;;5045718;28;20715;-72
2023/04/18 18:44:55;;;;;;;3.73;2.90;;;13.10;99.90;15.70;102275.00;;;;5039522;28;20239;-72
2023/04/18 18:47:21;;;;;;;1.80;1.70;;;13.30;99.90;15.70;102245.00;;;;5039409;28;20646;-72
2023/04/18 18:49:58;;;;;;;3.23;3.03;;;13.20;99.90;15.90;102272.00;;;;5024372;28;20186;-73
2023/04/18 18:52:28;;;;;;;2.03;1.83;;;13.20;99.90;15.50;102265.00;;;;5040927;28;20227;-73
2023/04/18 18:54:54;;;;;;;3.13;2.80;;;13.10;99.90;15.30;102268.00;;;;5045518;28;20535;-73
2023/04/18 18:57:20;;;;;;;2.13;1.93;;;13.00;99.90;15.80;102182.00;;;;5042860;28;20674;-72
2023/04/18 18:59:49;;;;;;;2.33;1.50;;;13.00;99.90;15.90;102278.00;;;;5060478;28;20191;-72
2023/04/18 19:02:24;;;;;;;2.73;2.57;;;13.10;99.90;15.00;102263.00;;;;5042671;28;20205;-72
2023/04/18 19:04:55;;;;;;;6.67;4.90;;;12.90;99.90;14.40;102216.00;;;;5043744;28;20194;-73
2023/04/18 19:07:26;;;;;;;1.07;1.07;;;12.70;99.90;15.30;102283.00;;;;5042936;28;20189;-72